Create Custom Reports and Graphics: Custom Report

Siberia 8700'

Squaw Valley

3/29/20 3:30 PM (-07:00)
Updated Every 15 Minutes
Temp 26.6 °F   1.7
RH 100 %   1
Wet Bulb 26.6 °F   1.8
Dew Pt 26.6 °F   1.9
Wind Dir SW | 230 °
Wind Gust 0.0 mph   0.0
WindChill 27.2 °F   2.1
Daily Min Temp 20.3 °F   5.1
Daily Max Temp 29.9 °F   1.9

Last 24 Hours

Squaw-Siberia 8700'

Hourly Data | America/Los_Angeles
as of 3/29/20 3:30 PM PDT
Date & Time Temp (°F) RH (%) Dew Pt (°F) Wet Bulb (°F) Wind Dir (°) Wind Gust (mph) WindChill (°F) Daily Min Temp (°F) Daily Max Temp (°F)
3/29/20 - 1500 27.6 100 27.5 27.6 WSW | 237 0.0 27.6 20.3 29.9
3/29/20 - 1400 27.7 100 27.7 27.7 W | 271 0.0 28.3 20.3 29.9
3/29/20 - 1300 28.4 100 28.4 28.4 WSW | 257 0.1 27.8 20.3 29.9
3/29/20 - 1200 28.4 100 28.4 28.4 WSW | 247 0.0 28.3 20.3 29.9
3/29/20 - 1100 26.1 100 26.1 26.1 W | 277 0.0 25.9 20.3 26.5
3/29/20 - 1000 25.5 100 25.4 25.4 WSW | 240 0.0 24.2 20.3 25.6
3/29/20 - 0900 23.3 99 23.1 23.2 SW | 228 0.0 22.2 20.3 23.3
3/29/20 - 0800 21.1 99 20.7 20.9 SW | 224 0.0 20.7 20.3 21.1
3/29/20 - 0700 20.4 99 20.1 20.3 SW | 220 0.0 20.4 20.3 20.6
3/29/20 - 0600 20.4 99 20.1 20.3 SW | 220 0.1 20.4 20.3 20.6
3/29/20 - 0500 20.3 99 19.9 20.2 SW | 222 0.2 20.3 20.3 20.6
3/29/20 - 0400 20.4 99 20.1 20.3 SW | 223 0.1 20.4 20.3 20.6
3/29/20 - 0300 20.5 99 20.1 20.3 WSW | 241 0.0 20.5 20.3 20.6
3/29/20 - 0200 20.5 99 20.2 20.4 SW | 226 0.0 20.4 20.3 20.6
3/29/20 - 0100 20.4 98 20.0 20.2 SW | 223 0.0 20.3 20.3 20.4
3/29/20 - 0000 20.3 99 20.0 20.2 SW | 229 0.0 20.4 15.1 28.1
3/28/20 - 2300 20.4 99 20.1 20.3 WSW | 237 0.0 20.7 15.1 28.1
3/28/20 - 2200 21.0 99 20.8 20.9 SW | 226 0.1 21.1 15.1 28.1
3/28/20 - 2100 21.1 99 20.8 21.0 SW | 217 0.0 21.2 15.1 28.1
3/28/20 - 2000 21.1 99 20.9 21.1 SW | 224 0.0 21.5 15.1 28.1
3/28/20 - 1900 22.0 99 21.8 21.9 SW | 236 0.2 22.2 15.1 28.1
3/28/20 - 1800 22.8 99 22.7 22.8 WSW | 237 0.2 23.1 15.1 28.1
3/28/20 - 1700 24.0 100 23.9 24.0 WSW | 238 0.0 25.3 15.1 28.1
3/28/20 - 1600 25.1 99 25.0 25.0 SW | 229 0.1 25.4 15.1 28.1
3/28/20 - 1500 26.0 99 25.9 25.9 SW | 226 0.1 26.5 15.1 28.1
Max 28.4 100 28.4 28.4 - 0.2 28.3 20.3 29.9
Avg 23.0 99 22.8 22.9 - 0.1 23.0 - -
Min 20.3 98 19.9 20.2 - 0.0 20.3 15.1 20.4

Last 30 Days

Squaw-Siberia 8700'

Daily Data | America/Los_Angeles
as of 3/29/20 3:30 PM PDT
Date Daily Max Temp (°F) Max Temp Time Daily Min Temp (°F) Min Temp Time Wind Spd (mph) Daily Max Wind (mph) Max Wind Time Max Wind Dir (°) Wet Bulb (°F) WetB Hrs <28F (hrs)
3/28/20 28.1 1354 15.1 0122 - 0.2 1017 WNW | 285 20.7 24.0
3/27/20 25.0 1308 11.4 0416 - 0.1 0714 ESE | 114 17.5 24.0
3/26/20 26.2 1125 7.7 0136 - 0.3 1952 E | 81 14.3 24.0
3/25/20 21.7 1343 10.9 2359 - 0.1 2237 SW | 235 15.1 24.0
3/24/20 22.8 0001 16.6 2357 26.8 62.3 1657 SSW | 203 20.2 24.0
3/23/20 26.0 1346 22.1 0555 26.7 97.2 2059 SW | 224 24.0 24.0
3/22/20 31.9 1344 21.8 0524 12.5 32.8 0604 ENE | 63 24.9 19.3
3/21/20 30.8 1559 19.6 0001 13.6 39.8 1139 ENE | 64 24.0 21.3
3/20/20 24.9 1447 16.1 0520 14.4 32.4 1114 ENE | 74 19.9 24.0
3/19/20 28.2 1505 13.0 0409 2.5 27.3 2347 ENE | 74 18.0 23.8
3/18/20 24.3 1351 13.8 0043 3.2 9.8 0349 WNW | 285 17.0 24.0
3/17/20 18.7 1546 10.6 0721 10.3 22.6 0043 SSW | 204 14.3 24.0
3/16/20 23.9 1306 16.5 2358 13.6 59.5 0411 SW | 222 20.0 24.0
3/15/20 20.1 1019 16.1 2119 41.9 113.0 0727 S | 179 18.1 24.0
3/14/20 24.5 0001 17.2 2155 47.1 96.4 0759 WNW | 299 19.8 24.0
3/13/20 36.2 0549 24.5 0001 35.5 113.4 1945 SW | 221 27.0 16.0
3/12/20 37.8 1716 28.5 0525 29.1 54.8 1105 ENE | 66 28.3 7.5
3/11/20 41.6 1553 29.8 0633 8.8 36.4 0246 E | 83 31.1 0.2
3/10/20 34.8 1714 23.4 0707 22.9 49.0 1149 ENE | 68 26.7 14.5
3/9/20 30.0 1602 19.7 0458 17.9 52.4 0120 S | 187 24.2 19.0
3/8/20 26.4 1041 19.6 0602 17.6 42.0 0006 S | 187 21.9 24.0
3/7/20 30.2 0024 20.0 1822 43.4 84.6 0114 SW | 222 22.0 24.0
3/6/20 40.2 1342 29.7 0001 39.8 81.0 2316 SW | 220 28.8 10.6
3/5/20 42.7 1432 34.5 2342 26.3 59.0 2153 SSW | 198 31.3 1.2
3/4/20 48.5 1121 35.3 0030 12.7 27.6 0050 E | 96 30.9 0.5
3/3/20 39.5 1440 24.0 0542 22.4 51.3 0011 ENE | 68 28.1 9.7
3/2/20 26.2 2358 7.8 0557 45.3 83.1 0314 ENE | 67 15.8 24.0
3/1/20 19.0 0101 9.2 2342 31.2 70.1 1713 NE | 39 12.9 24.0
2/29/20 32.4 1126 18.8 2355 40.0 79.8 0629 SSW | 213 24.0 20.8
2/28/20 40.1 1304 29.8 2321 28.6 56.4 1959 SW | 223 28.6 9.7
Max 48.5 - 35.3 - 47.1 113.4 - - 31.3 24.0
Avg - - - - 24.4 - - - 22.3 -
Min 18.7 - 7.7 - 2.5 0.1 - - 12.9 0.2
No Data Available for this Wind Rose report. Either no data was reported for this station for the date range selected, or the station does not have wind sensors installed.
Calm: 0.2%